Fort Lauderdale, FL (33338)

8:59 PM EDT on July 28, 2015 (GMT -0400)
HT Birch State Park WeatherSTEM | | Change Station
CLOSE
Current Station
Personal Weather Station
Location: Fort Lauderdale, FL
Elevation: 29 ft
Nearby Weather Stations

Elev 29 ft 26.15 °N, 80.11 °W | Updated 4 minutes ago

Mostly Cloudy
Mostly Cloudy
85.4 °F
Feels Like 95 °F
N
1.0
Wind Variable Wind from WSW
Gusts 5.0 mph

Today
High -- | Low -- °F
--% Chance of Precip.
Yesterday
High -- | Low -- °F
Precip. -- in
6:44 AM 8:09 PM
Waxing Gibbous, 92% visible
Pressure 29.99 in
Visibility 10.0 miles
Clouds Few 4300 ft
Mostly Cloudy 25000 ft
Heat Index 95 °F
Dew Point 76 °F
Humidity 74%
Rainfall 0.00 in
Snow Depth Not available.
UV 0.0 out of 12
Pollen 2.80 out of 12
Air Quality Not available.
Flu Activity Not available.
METAR KFLL 290053Z 26007KT 10SM FEW043 BKN250 31/22 A2999 RMK AO2 SLP154 T03060217

More Conditions Fewer Conditions

Pressure 29.99 in
Visibility 10.0 miles
Clouds Few 4300 ft
Mostly Cloudy 25000 ft
Heat Index 95 °F
Dew Point 76 °F
Humidity 74%
Rainfall 0.00 in
Snow Depth Not available.
UV 0.0 out of 12
Pollen 2.80 out of 12
Air Quality Not available.
Flu Activity Not available.
METAR KFLL 290053Z 26007KT 10SM FEW043 BKN250 31/22 A2999 RMK AO2 SLP154 T03060217

More Conditions Fewer Conditions

10-Day Weather Forecast

×

Almanac

Astronomy

Jul. 28, 2015 Rise Set
Actual Time
Civil Twilight
Nautical Twilight
Astronomical Twilight
Moon
Length of Visible Light
Length of Day
Tomorrow will be .
, % of the Moon is Illuminated

Today's Extremes

State Highs State Lows

Community

WunderPhotos

Upload Photos

1,841,987 photos uploaded!

WunderBlogs® & News

Nearby

Air Quality

  Air Quality AQ Index Pollutant
Not available.

Snow Depth

Station Depth Elevation

Earthquake Activity

City Distance Mag. Time & Date
Minimum magnitude displayed is 2.5.

Coastal Water Temperatures

Place Temperature

Stations

Nearby Weather Stations

Station Location Temp. Windchill Dew Point Humidity Wind Precip. Elev Updated Type